Time;durP1;ratioP1;P1;durP2;ratioP2;P2;SDS_P1;SDS_P2;PMS_P1;PMS_P2;Temp;Humidity;BMP_temperature;BMP_pressure;BME280_temperature;BME280_humidity;BME280_pressure;Samples;Min_cycle;Max_cycle;Signal;HPM_P1;HPM_P2
2023/08/28 00:00:50;;;;;;;1.27;0.40;;;13.20;99.90;;;;;;4947356;28;20042;-87
2023/08/28 00:03:16;;;;;;;4.13;0.80;;;13.10;99.90;;;;;;4948864;28;20039;-86
2023/08/28 00:05:42;;;;;;;1.90;0.80;;;13.30;99.90;;;;;;4952325;28;20057;-86
2023/08/28 00:08:08;;;;;;;2.35;0.80;;;13.30;99.90;;;;;;4948712;28;20034;-87
2023/08/28 00:10:33;;;;;;;1.40;0.50;;;13.20;99.90;;;;;;4949262;28;20023;-86
2023/08/28 00:12:59;;;;;;;2.15;0.60;;;13.20;99.90;;;;;;4947135;28;20463;-86
2023/08/28 00:15:25;;;;;;;2.00;0.60;;;13.30;99.90;;;;;;4950236;28;20034;-86
2023/08/28 00:17:50;;;;;;;1.65;0.70;;;13.30;99.90;;;;;;4965361;28;20055;-86
2023/08/28 00:20:16;;;;;;;1.77;0.55;;;13.30;99.90;;;;;;4959470;28;20031;-87
2023/08/28 00:22:42;;;;;;;4.60;0.70;;;13.20;99.90;;;;;;4948650;28;20026;-87
2023/08/28 00:25:08;;;;;;;1.30;0.50;;;13.20;99.90;;;;;;4949706;29;20035;-86
2023/08/28 00:27:35;;;;;;;2.55;0.70;;;13.20;99.90;;;;;;4956731;28;20031;-86
2023/08/28 00:30:01;;;;;;;2.00;1.00;;;13.30;99.90;;;;;;4945553;28;20109;-87
2023/08/28 00:32:27;;;;;;;1.95;0.60;;;13.30;99.90;;;;;;4950207;28;20050;-87
2023/08/28 00:34:54;;;;;;;1.20;0.50;;;13.20;99.90;;;;;;4958976;28;20031;-86
2023/08/28 00:37:20;;;;;;;1.67;0.40;;;13.10;99.90;;;;;;4947051;28;20018;-86
2023/08/28 00:39:45;;;;;;;1.10;0.40;;;13.00;99.90;;;;;;4948424;28;20547;-87
2023/08/28 00:42:11;;;;;;;1.67;0.40;;;12.90;99.90;;;;;;4957298;28;20051;-87
2023/08/28 00:44:37;;;;;;;1.13;0.40;;;12.90;99.90;;;;;;4949366;28;20026;-86
2023/08/28 00:47:06;;;;;;;1.73;0.40;;;13.00;99.90;;;;;;4949014;28;21080;-87
2023/08/28 00:49:32;;;;;;;1.00;0.40;;;12.90;99.90;;;;;;4962073;28;20054;-86
2023/08/28 00:51:59;;;;;;;0.88;0.45;;;12.90;99.90;;;;;;4947045;28;20067;-86
2023/08/28 00:54:25;;;;;;;0.68;0.30;;;12.90;99.90;;;;;;4943636;28;20049;-86
2023/08/28 00:56:54;;;;;;;0.70;0.38;;;12.90;99.90;;;;;;4944907;28;20054;-87
2023/08/28 00:59:20;;;;;;;0.90;0.40;;;12.70;99.90;;;;;;4946782;28;20495;-87
2023/08/28 01:01:46;;;;;;;1.10;0.40;;;12.80;99.90;;;;;;4946000;28;20031;-86
2023/08/28 01:04:11;;;;;;;0.80;0.40;;;12.70;99.90;;;;;;4957049;28;20052;-87
2023/08/28 01:06:59;;;;;;;2.03;0.40;;;12.70;99.90;;;;;;4944023;28;20118;-87
2023/08/28 01:09:54;;;;;;;1.45;0.40;;;12.70;99.90;;;;;;4951239;28;20031;-86
2023/08/28 01:12:28;;;;;;;0.70;0.32;;;12.70;99.90;;;;;;4951438;28;20527;-86
2023/08/28 01:15:09;;;;;;;0.88;0.40;;;12.60;99.90;;;;;;4952456;28;20043;-86
2023/08/28 01:17:38;;;;;;;1.63;0.50;;;12.70;99.90;;;;;;4965379;28;20022;-87
2023/08/28 01:20:06;;;;;;;1.20;0.35;;;12.70;99.90;;;;;;4952426;28;20464;-86
2023/08/28 01:22:39;;;;;;;1.33;0.50;;;12.70;99.90;;;;;;4948977;28;20034;-86
2023/08/28 01:25:09;;;;;;;1.98;0.60;;;12.70;99.90;;;;;;4950822;28;20395;-86
2023/08/28 01:27:40;;;;;;;3.30;0.73;;;12.70;99.90;;;;;;4949648;28;20075;-86
2023/08/28 01:30:13;;;;;;;1.70;0.50;;;12.70;99.90;;;;;;4954913;28;20036;-86
2023/08/28 01:32:40;;;;;;;1.75;0.50;;;12.60;99.90;;;;;;4942112;28;20032;-87
2023/08/28 01:35:13;;;;;;;1.10;0.57;;;12.70;99.90;;;;;;4963934;28;20492;-86
2023/08/28 01:37:49;;;;;;;1.15;0.40;;;12.60;99.90;;;;;;4952292;28;20078;-87
2023/08/28 01:40:17;;;;;;;0.90;0.40;;;12.50;99.90;;;;;;4953032;28;20046;-86
2023/08/28 01:42:46;;;;;;;0.77;0.40;;;12.50;99.90;;;;;;4951500;28;20054;-87
2023/08/28 01:45:14;;;;;;;0.68;0.40;;;12.40;99.90;;;;;;4950501;28;20408;-87
2023/08/28 01:47:40;;;;;;;1.58;0.50;;;12.50;99.90;;;;;;4952226;28;20043;-86
2023/08/28 01:50:06;;;;;;;1.10;0.40;;;12.40;99.90;;;;;;4965176;28;20038;-87
2023/08/28 01:52:32;;;;;;;0.95;0.30;;;12.30;99.90;;;;;;4949843;28;20038;-87
2023/08/28 01:54:57;;;;;;;1.20;0.40;;;12.30;99.90;;;;;;4950781;28;20070;-86
2023/08/28 01:57:23;;;;;;;1.27;0.40;;;12.30;99.90;;;;;;4951479;28;20083;-86
2023/08/28 01:59:49;;;;;;;1.70;0.40;;;12.30;99.90;;;;;;4949509;28;20031;-87
2023/08/28 02:02:14;;;;;;;1.40;0.47;;;12.40;99.90;;;;;;4963431;28;20494;-87
2023/08/28 02:04:40;;;;;;;1.92;0.38;;;12.30;99.90;;;;;;4951939;28;20050;-87
2023/08/28 02:07:06;;;;;;;1.30;0.30;;;12.20;99.90;;;;;;4950083;28;20384;-87
2023/08/28 02:09:32;;;;;;;1.00;0.40;;;12.10;99.90;;;;;;4966476;28;20050;-87
2023/08/28 02:11:58;;;;;;;0.95;0.50;;;12.10;99.90;;;;;;4963577;28;20073;-87
2023/08/28 02:14:24;;;;;;;2.20;0.55;;;12.20;99.90;;;;;;4946458;28;20070;-87
2023/08/28 02:16:50;;;;;;;0.88;0.40;;;12.10;99.90;;;;;;4965443;28;20118;-87
2023/08/28 02:19:15;;;;;;;0.80;0.32;;;12.10;99.90;;;;;;4949462;28;20030;-86
2023/08/28 02:21:41;;;;;;;1.15;0.43;;;12.10;99.90;;;;;;4949917;28;20038;-86
2023/08/28 02:24:07;;;;;;;1.13;0.40;;;12.10;99.90;;;;;;4969888;28;20034;-86
2023/08/28 02:26:33;;;;;;;1.20;0.50;;;12.10;99.90;;;;;;4965328;28;20855;-87
2023/08/28 02:28:59;;;;;;;2.22;0.50;;;12.00;99.90;;;;;;4949808;28;20035;-86
2023/08/28 02:31:25;;;;;;;1.55;0.40;;;12.00;99.90;;;;;;4949350;28;20118;-87
2023/08/28 02:33:51;;;;;;;1.35;0.43;;;11.80;99.90;;;;;;4949659;28;20036;-86
2023/08/28 02:36:16;;;;;;;1.00;0.40;;;11.90;99.90;;;;;;4962978;28;20033;-86
2023/08/28 02:38:42;;;;;;;1.33;0.68;;;11.90;99.90;;;;;;4948296;28;20117;-87
2023/08/28 02:41:08;;;;;;;1.40;0.43;;;11.80;99.90;;;;;;4948602;28;20031;-86
2023/08/28 02:43:34;;;;;;;1.55;0.40;;;11.90;99.90;;;;;;4951758;28;20034;-86
2023/08/28 02:46:01;;;;;;;1.00;0.40;;;11.80;99.90;;;;;;4960697;28;20538;-86
2023/08/28 02:48:27;;;;;;;1.25;0.50;;;11.80;99.90;;;;;;4950052;28;20059;-86
2023/08/28 02:50:53;;;;;;;0.90;0.40;;;11.90;99.90;;;;;;4951891;28;20050;-85
2023/08/28 02:53:19;;;;;;;2.28;0.60;;;11.90;99.90;;;;;;4949010;28;20066;-86
2023/08/28 02:56:34;;;;;;;1.10;0.50;;;11.80;99.90;;;;;;4949448;28;20098;-87
2023/08/28 02:58:59;;;;;;;1.42;0.50;;;11.80;99.90;;;;;;4962832;28;20554;-86
2023/08/28 03:01:25;;;;;;;1.10;0.60;;;11.70;99.90;;;;;;4947180;28;20031;-86
2023/08/28 03:03:51;;;;;;;1.20;0.50;;;11.70;99.90;;;;;;4949886;28;20101;-87
2023/08/28 03:06:17;;;;;;;2.10;0.65;;;11.70;99.90;;;;;;4945760;28;20063;-86
2023/08/28 03:08:42;;;;;;;0.82;0.40;;;11.60;99.90;;;;;;4963819;28;20495;-86
2023/08/28 03:11:08;;;;;;;1.00;0.50;;;11.60;99.90;;;;;;4944170;28;20035;-87
2023/08/28 03:13:34;;;;;;;1.27;0.43;;;11.60;99.90;;;;;;4948121;28;20035;-87
2023/08/28 03:16:00;;;;;;;2.15;0.52;;;11.60;99.90;;;;;;4946460;28;20045;-86
2023/08/28 03:18:26;;;;;;;1.20;0.57;;;11.70;99.90;;;;;;4945380;28;20483;-87
2023/08/28 03:20:51;;;;;;;1.40;0.75;;;11.70;99.90;;;;;;4950605;28;20030;-87
2023/08/28 03:23:17;;;;;;;2.47;0.90;;;11.70;99.90;;;;;;4949809;28;20530;-86
2023/08/28 03:25:43;;;;;;;1.50;0.63;;;11.60;99.90;;;;;;4964028;28;20026;-87
2023/08/28 03:28:09;;;;;;;1.50;0.70;;;11.50;99.90;;;;;;4946362;28;20034;-87
2023/08/28 03:30:35;;;;;;;1.30;0.85;;;11.60;99.90;;;;;;4948028;28;20023;-86
2023/08/28 03:33:01;;;;;;;1.80;0.80;;;11.50;99.90;;;;;;4958686;28;20078;-87
2023/08/28 03:35:26;;;;;;;1.65;0.88;;;11.50;99.90;;;;;;4948469;28;20445;-87
2023/08/28 03:37:52;;;;;;;2.00;0.90;;;11.60;99.90;;;;;;4948494;28;20030;-86
2023/08/28 03:40:18;;;;;;;2.30;0.90;;;11.50;99.90;;;;;;4944147;28;20042;-86
2023/08/28 03:42:44;;;;;;;1.52;0.82;;;11.50;99.90;;;;;;4945701;28;20075;-86
2023/08/28 03:45:09;;;;;;;1.40;0.80;;;11.50;99.90;;;;;;4947090;28;20023;-87
2023/08/28 03:47:35;;;;;;;1.40;0.65;;;11.40;99.90;;;;;;4964763;28;20065;-86
2023/08/28 03:50:01;;;;;;;1.88;0.80;;;11.40;99.90;;;;;;4943324;28;20101;-87
2023/08/28 03:52:27;;;;;;;1.92;0.90;;;11.40;99.90;;;;;;4964207;28;20028;-87
2023/08/28 03:54:52;;;;;;;1.75;0.82;;;11.30;99.90;;;;;;4961497;28;20466;-86
2023/08/28 03:57:18;;;;;;;1.52;0.90;;;11.30;99.90;;;;;;4951914;28;20516;-87
2023/08/28 03:59:44;;;;;;;1.75;0.70;;;11.30;99.90;;;;;;4959849;28;20027;-87
2023/08/28 04:02:10;;;;;;;1.73;1.00;;;11.40;99.90;;;;;;4967256;28;20026;-87
2023/08/28 04:04:35;;;;;;;1.70;0.80;;;11.50;99.90;;;;;;4943864;28;20079;-87
2023/08/28 04:07:02;;;;;;;1.60;0.88;;;11.40;99.90;;;;;;4960810;28;20042;-87
2023/08/28 04:09:29;;;;;;;2.33;1.10;;;11.30;99.90;;;;;;4949174;29;20035;-88
2023/08/28 04:11:55;;;;;;;1.83;0.90;;;11.20;99.90;;;;;;4946825;28;20042;-87
2023/08/28 04:14:22;;;;;;;2.20;0.90;;;11.30;99.90;;;;;;4943428;28;20038;-87
2023/08/28 04:16:53;;;;;;;1.95;1.10;;;11.30;99.90;;;;;;4942750;28;20424;-87
2023/08/28 04:19:19;;;;;;;1.83;1.00;;;11.40;99.90;;;;;;4965478;28;20037;-86
2023/08/28 04:21:44;;;;;;;2.28;1.42;;;11.40;99.90;;;;;;4945287;28;20035;-87
2023/08/28 04:24:10;;;;;;;1.60;1.08;;;11.40;99.90;;;;;;4951687;28;20114;-87
2023/08/28 04:26:36;;;;;;;1.77;1.38;;;11.50;99.90;;;;;;4944345;28;20465;-87
2023/08/28 04:29:01;;;;;;;2.58;1.88;;;11.50;99.90;;;;;;4945651;28;20043;-87
2023/08/28 04:31:27;;;;;;;2.30;1.58;;;11.60;99.90;;;;;;4961595;28;20527;-86
2023/08/28 04:33:53;;;;;;;2.83;1.85;;;11.60;99.90;;;;;;4949991;28;20071;-87
2023/08/28 04:36:18;;;;;;;2.63;1.50;;;11.70;99.90;;;;;;4945483;28;21300;-87
2023/08/28 04:38:44;;;;;;;2.40;1.80;;;11.70;99.90;;;;;;4945260;28;20398;-87
2023/08/28 04:41:10;;;;;;;3.00;2.10;;;11.80;99.90;;;;;;4947745;28;20027;-87
2023/08/28 04:43:36;;;;;;;2.75;1.88;;;11.90;99.90;;;;;;4948019;28;20122;-86
2023/08/28 04:46:01;;;;;;;2.17;1.67;;;11.80;99.90;;;;;;4955070;28;20035;-86
2023/08/28 04:48:30;;;;;;;2.10;1.52;;;11.90;99.90;;;;;;4961107;28;20027;-87
2023/08/28 04:50:57;;;;;;;2.83;1.98;;;12.00;99.90;;;;;;4955186;28;20098;-87
2023/08/28 04:53:22;;;;;;;2.47;2.05;;;12.00;99.90;;;;;;4952319;28;20039;-86
2023/08/28 04:55:49;;;;;;;2.80;2.00;;;12.00;99.90;;;;;;4964549;28;20115;-87
2023/08/28 04:58:14;;;;;;;2.75;2.15;;;12.10;99.90;;;;;;4965502;28;20101;-87
2023/08/28 05:00:40;;;;;;;2.17;1.98;;;12.20;99.90;;;;;;4950806;28;20020;-87
2023/08/28 05:03:06;;;;;;;3.83;1.98;;;12.30;99.90;;;;;;4966498;28;20460;-87
2023/08/28 05:05:32;;;;;;;3.40;2.53;;;12.30;99.90;;;;;;4949202;28;20122;-87
2023/08/28 05:07:58;;;;;;;3.47;2.72;;;12.30;99.90;;;;;;4946740;28;20035;-87
2023/08/28 05:10:24;;;;;;;2.85;2.65;;;12.30;99.90;;;;;;4952997;28;20475;-88
2023/08/28 05:12:49;;;;;;;3.42;3.13;;;12.30;99.90;;;;;;4950912;28;20035;-87
2023/08/28 05:15:15;;;;;;;3.03;2.72;;;12.40;99.90;;;;;;4945169;28;20404;-87
2023/08/28 05:17:41;;;;;;;3.13;2.72;;;12.40;99.90;;;;;;4961419;28;20034;-87
2023/08/28 05:20:07;;;;;;;3.90;3.60;;;12.50;99.90;;;;;;4951817;28;20062;-86
2023/08/28 05:22:33;;;;;;;3.28;2.97;;;12.50;99.90;;;;;;4958817;28;20042;-84
2023/08/28 05:24:58;;;;;;;5.13;3.58;;;12.50;99.90;;;;;;4945469;28;20039;-87
2023/08/28 05:27:24;;;;;;;3.58;3.28;;;12.60;99.90;;;;;;4950178;28;20082;-87
2023/08/28 05:29:51;;;;;;;3.88;3.58;;;12.60;99.90;;;;;;4951530;28;20078;-86
2023/08/28 05:32:17;;;;;;;4.18;3.70;;;12.60;99.90;;;;;;4950434;28;20104;-87
2023/08/28 05:34:43;;;;;;;3.75;3.45;;;12.60;99.90;;;;;;4951376;28;20050;-87
2023/08/28 05:37:08;;;;;;;4.28;3.88;;;12.50;99.90;;;;;;4950923;28;20039;-89
2023/08/28 05:39:34;;;;;;;4.05;3.75;;;12.50;99.90;;;;;;4963104;28;20023;-87
2023/08/28 05:42:00;;;;;;;5.22;3.90;;;12.60;99.90;;;;;;4948573;28;20480;-86
2023/08/28 05:44:26;;;;;;;3.80;3.13;;;12.50;99.90;;;;;;4951265;28;20069;-87
2023/08/28 05:46:52;;;;;;;4.20;3.80;;;12.50;99.90;;;;;;4950373;28;20063;-87
2023/08/28 05:49:17;;;;;;;3.35;3.05;;;12.60;99.90;;;;;;4949616;28;20022;-86
2023/08/28 05:51:43;;;;;;;4.03;3.35;;;12.70;99.90;;;;;;4953561;28;20385;-87
2023/08/28 05:54:09;;;;;;;2.75;2.55;;;12.70;99.90;;;;;;4949083;28;20575;-87
2023/08/28 05:56:35;;;;;;;4.75;3.60;;;12.80;99.90;;;;;;4950233;28;20023;-88
2023/08/28 05:59:01;;;;;;;4.28;2.55;;;12.90;99.90;;;;;;4967536;28;20035;-85
2023/08/28 06:01:27;;;;;;;2.95;2.53;;;13.00;99.90;;;;;;4945433;28;20073;-88
2023/08/28 06:03:56;;;;;;;2.60;1.92;;;13.00;99.90;;;;;;4965743;28;20043;-87
2023/08/28 06:06:23;;;;;;;3.50;2.40;;;13.10;99.90;;;;;;4948114;28;20094;-87
2023/08/28 06:08:50;;;;;;;4.03;2.55;;;13.20;99.90;;;;;;4960599;28;20436;-88
2023/08/28 06:11:16;;;;;;;3.47;3.17;;;13.20;99.90;;;;;;4948567;28;20023;-88
2023/08/28 06:13:42;;;;;;;3.97;3.40;;;13.30;99.90;;;;;;4962536;28;20117;-88
2023/08/28 06:16:07;;;;;;;4.40;2.70;;;13.30;99.90;;;;;;4944722;28;20031;-87
2023/08/28 06:18:33;;;;;;;3.88;3.13;;;13.40;99.90;;;;;;4962982;28;20090;-85
2023/08/28 06:20:59;;;;;;;3.75;3.45;;;13.50;99.90;;;;;;4946389;28;20716;-87
2023/08/28 06:23:25;;;;;;;3.45;3.15;;;13.60;99.90;;;;;;4947458;28;20106;-87
2023/08/28 06:25:50;;;;;;;3.97;2.65;;;13.60;99.90;;;;;;4948252;28;20081;-84
2023/08/28 06:28:16;;;;;;;3.08;2.67;;;13.60;99.90;;;;;;4948351;28;20027;-90
2023/08/28 06:30:42;;;;;;;4.00;3.13;;;13.60;99.90;;;;;;4949479;28;20039;-88
2023/08/28 06:33:08;;;;;;;4.55;3.30;;;13.60;99.90;;;;;;4948283;28;20043;-86
2023/08/28 06:35:34;;;;;;;4.18;3.28;;;13.80;99.90;;;;;;4946820;28;20509;-85
2023/08/28 06:37:59;;;;;;;3.38;2.70;;;13.90;99.90;;;;;;4944306;28;20035;-84
2023/08/28 06:40:25;;;;;;;2.83;1.90;;;14.00;99.90;;;;;;4950584;28;20036;-84
2023/08/28 06:42:51;;;;;;;5.70;4.30;;;14.10;99.90;;;;;;4964012;28;20046;-88
2023/08/28 06:45:17;;;;;;;4.15;3.30;;;14.10;99.90;;;;;;4967968;28;20031;-84
2023/08/28 06:47:42;;;;;;;4.50;3.65;;;14.10;99.90;;;;;;4952344;28;20055;-86
2023/08/28 06:50:08;;;;;;;5.15;4.70;;;14.20;99.90;;;;;;4947685;28;20042;-88
2023/08/28 06:52:35;;;;;;;5.57;4.97;;;14.20;99.90;;;;;;4940700;28;20038;-87
2023/08/28 06:55:01;;;;;;;5.88;5.32;;;14.20;99.90;;;;;;4961848;28;20040;-88
2023/08/28 06:57:27;;;;;;;4.43;4.03;;;14.20;99.90;;;;;;4955193;28;20365;-83
2023/08/28 06:59:53;;;;;;;5.22;3.92;;;14.40;99.90;;;;;;4947084;28;20038;-88
2023/08/28 07:02:19;;;;;;;3.78;2.40;;;14.50;99.90;;;;;;4946213;28;20027;-85
2023/08/28 07:04:45;;;;;;;2.92;2.17;;;14.60;99.90;;;;;;4945167;28;20049;-86
2023/08/28 07:07:16;;;;;;;3.10;2.22;;;14.70;99.90;;;;;;4944328;28;20113;-87
2023/08/28 07:09:42;;;;;;;4.30;2.60;;;14.80;99.90;;;;;;4963966;28;20022;-87
2023/08/28 07:12:08;;;;;;;3.72;2.67;;;14.90;99.90;;;;;;4951254;28;20113;-82
2023/08/28 07:14:34;;;;;;;2.72;2.05;;;15.00;99.90;;;;;;4961014;28;20030;-87
2023/08/28 07:17:01;;;;;;;5.57;2.78;;;15.20;99.90;;;;;;4942635;28;20035;-87
2023/08/28 07:19:27;;;;;;;3.05;1.35;;;15.40;99.90;;;;;;4961426;28;20369;-87
2023/08/28 07:21:54;;;;;;;5.00;4.53;;;15.60;99.90;;;;;;4949409;28;20113;-85
2023/08/28 07:24:20;;;;;;;3.20;2.70;;;15.40;99.90;;;;;;4955361;28;20027;-84
2023/08/28 07:26:46;;;;;;;2.65;2.03;;;15.60;99.90;;;;;;4960176;28;20034;-84
2023/08/28 07:29:12;;;;;;;3.90;2.15;;;15.80;99.90;;;;;;4943111;28;20038;-83
2023/08/28 07:31:37;;;;;;;2.50;1.92;;;15.80;99.90;;;;;;4955574;28;20654;-85
2023/08/28 07:34:04;;;;;;;3.28;1.90;;;15.80;99.90;;;;;;4959322;28;20031;-88
2023/08/28 07:36:30;;;;;;;2.97;2.40;;;15.90;99.90;;;;;;4957520;28;20035;-89
2023/08/28 07:38:56;;;;;;;2.20;1.58;;;16.00;99.90;;;;;;4960842;28;20049;-87
2023/08/28 07:41:22;;;;;;;4.35;3.72;;;16.00;99.90;;;;;;4963178;28;20030;-86
2023/08/28 07:43:47;;;;;;;3.72;2.75;;;16.10;99.90;;;;;;4960618;28;20042;-86
2023/08/28 07:46:13;;;;;;;4.68;3.30;;;16.30;99.90;;;;;;4963879;28;20070;-88
2023/08/28 07:48:39;;;;;;;6.30;5.63;;;16.50;99.90;;;;;;4946573;28;20126;-86
2023/08/28 07:51:05;;;;;;;5.82;4.60;;;16.20;99.90;;;;;;4960577;28;20118;-87
2023/08/28 07:53:31;;;;;;;6.10;4.65;;;16.40;99.90;;;;;;4958509;28;20121;-87
2023/08/28 07:55:57;;;;;;;5.82;4.53;;;16.50;99.90;;;;;;4945678;28;20114;-87
2023/08/28 07:58:23;;;;;;;6.63;4.60;;;16.90;99.90;;;;;;4961053;28;20035;-87
2023/08/28 08:00:48;;;;;;;4.68;4.22;;;16.80;99.90;;;;;;4950727;28;20122;-88
2023/08/28 08:03:14;;;;;;;6.45;5.85;;;16.90;99.90;;;;;;4945086;28;20122;-87
2023/08/28 08:05:40;;;;;;;5.28;4.07;;;16.60;99.90;;;;;;4944747;28;20488;-86
2023/08/28 08:08:06;;;;;;;4.07;2.60;;;16.60;99.90;;;;;;4942883;28;20031;-86
2023/08/28 08:10:32;;;;;;;4.05;3.10;;;16.90;99.90;;;;;;4945984;28;20035;-86
2023/08/28 08:12:57;;;;;;;5.70;3.35;;;17.00;99.90;;;;;;4950530;28;20035;-88
2023/08/28 08:15:23;;;;;;;2.80;1.90;;;16.90;99.90;;;;;;4950663;28;20090;-88
2023/08/28 08:17:49;;;;;;;4.53;2.50;;;17.10;99.90;;;;;;4947368;28;20537;-88
2023/08/28 08:20:15;;;;;;;2.30;1.70;;;17.30;99.90;;;;;;4950752;28;20126;-84
2023/08/28 08:22:46;;;;;;;2.75;1.75;;;17.50;99.90;;;;;;4944126;28;20031;-88
2023/08/28 08:25:13;;;;;;;3.35;2.35;;;17.60;99.90;;;;;;4948535;28;20066;-86
2023/08/28 08:27:44;;;;;;;5.22;2.08;;;17.70;99.90;;;;;;4950587;28;20035;-84
2023/08/28 08:30:13;;;;;;;3.05;1.45;;;17.90;99.90;;;;;;4949567;28;20026;-86
2023/08/28 08:32:39;;;;;;;2.78;1.60;;;17.70;99.90;;;;;;4954214;28;20032;-87
2023/08/28 08:35:05;;;;;;;2.70;1.27;;;17.90;99.90;;;;;;4964687;28;20038;-88
2023/08/28 08:37:32;;;;;;;3.15;1.10;;;18.00;99.90;;;;;;4964884;28;20513;-87
2023/08/28 08:39:57;;;;;;;3.88;0.93;;;17.90;99.90;;;;;;4950554;28;20030;-88
2023/08/28 08:42:23;;;;;;;1.88;0.73;;;17.60;99.90;;;;;;4965180;28;20031;-83
2023/08/28 08:44:49;;;;;;;1.67;0.88;;;17.40;99.90;;;;;;4964370;28;20031;-82
2023/08/28 08:47:16;;;;;;;3.08;1.00;;;17.30;99.90;;;;;;4962400;28;20023;-88
2023/08/28 08:49:43;;;;;;;1.92;1.00;;;17.30;99.90;;;;;;4950390;28;20027;-90
2023/08/28 08:52:12;;;;;;;2.33;0.93;;;17.20;99.90;;;;;;4947727;28;20122;-87
2023/08/28 08:54:42;;;;;;;2.07;0.80;;;17.20;99.90;;;;;;4949454;28;20038;-85
2023/08/28 08:57:10;;;;;;;;;;;17.60;99.90;;;;;;4966324;28;22528;-84
2023/08/28 08:59:36;;;;;;;2.05;0.73;;;18.20;99.90;;;;;;4960951;28;20407;-87
2023/08/28 09:02:02;;;;;;;3.13;0.80;;;18.40;99.90;;;;;;4952518;28;20038;-87
2023/08/28 09:04:30;;;;;;;2.05;0.70;;;18.40;99.90;;;;;;4945127;28;20062;-89
2023/08/28 09:06:58;;;;;;;1.38;0.50;;;18.20;99.90;;;;;;4958444;28;20027;-89
2023/08/28 09:09:23;;;;;;;1.10;0.40;;;18.00;99.90;;;;;;4943001;28;20604;-90
2023/08/28 09:11:49;;;;;;;1.60;0.40;;;18.00;99.90;;;;;;4961769;28;20054;-87
2023/08/28 09:14:16;;;;;;;1.17;0.30;;;18.30;99.90;;;;;;4959008;28;20086;-88
2023/08/28 09:16:41;;;;;;;2.08;0.50;;;18.50;99.90;;;;;;4960216;28;20251;-90
2023/08/28 09:19:08;;;;;;;1.40;0.45;;;18.40;99.90;;;;;;4963880;28;20241;-89
2023/08/28 09:21:35;;;;;;;1.67;0.30;;;18.60;99.90;;;;;;4963074;28;20023;-87
2023/08/28 09:24:01;;;;;;;0.77;0.30;;;18.80;99.90;;;;;;4964323;28;20503;-89
2023/08/28 09:26:27;;;;;;;1.27;0.30;;;18.50;99.90;;;;;;4948215;28;20108;-87
2023/08/28 09:29:00;;;;;;;2.28;0.20;;;18.70;99.90;;;;;;4963862;28;20035;-88
2023/08/28 09:31:42;;;;;;;0.65;0.20;;;18.60;99.90;;;;;;4965603;28;20046;-91
2023/08/28 09:34:08;;;;;;;0.73;0.30;;;18.80;99.90;;;;;;4948525;28;20043;-89
2023/08/28 09:36:36;;;;;;;0.75;0.20;;;19.70;99.90;;;;;;4960170;28;20055;-91
2023/08/28 09:39:05;;;;;;;1.08;0.30;;;20.00;99.90;;;;;;4975215;28;20059;-90
2023/08/28 09:41:42;;;;;;;1.27;0.40;;;19.60;99.90;;;;;;4964342;28;20038;-85
2023/08/28 09:44:08;;;;;;;0.80;0.30;;;19.20;99.90;;;;;;4956457;28;20498;-89
2023/08/28 09:46:36;;;;;;;1.17;0.38;;;19.50;99.90;;;;;;4950277;28;20041;-88
2023/08/28 09:49:03;;;;;;;1.25;0.20;;;19.50;99.90;;;;;;4949600;28;20031;-87
2023/08/28 09:51:43;;;;;;;1.02;0.20;;;19.80;99.90;;;;;;4960986;28;20031;-85
2023/08/28 09:54:11;;;;;;;1.55;0.30;;;19.80;99.90;;;;;;4948044;28;20121;-88
2023/08/28 09:56:38;;;;;;;1.05;0.20;;;20.00;99.90;;;;;;4965465;28;20027;-88
2023/08/28 09:59:06;;;;;;;1.38;0.40;;;20.70;99.90;;;;;;4961941;28;20093;-86
2023/08/28 10:01:35;;;;;;;1.20;0.30;;;20.10;99.90;;;;;;4960211;28;20565;-86
2023/08/28 10:04:05;;;;;;;0.50;0.20;;;20.30;99.90;;;;;;4940819;28;20523;-88
2023/08/28 10:06:35;;;;;;;2.10;0.30;;;20.70;99.90;;;;;;4962443;28;20109;-90
2023/08/28 10:09:04;;;;;;;0.70;0.30;;;20.00;99.90;;;;;;4958321;28;20488;-91
2023/08/28 10:11:35;;;;;;;1.42;0.20;;;20.10;99.90;;;;;;4962275;28;20039;-85
2023/08/28 10:14:03;;;;;;;1.25;0.20;;;19.90;99.90;;;;;;4960222;28;20043;-91
2023/08/28 10:16:33;;;;;;;0.85;0.30;;;19.60;99.90;;;;;;4957531;28;20411;-83
2023/08/28 10:19:20;;;;;;;0.88;0.25;;;19.40;99.90;;;;;;4944106;28;20049;-90
2023/08/28 10:21:47;;;;;;;0.73;0.30;;;19.90;99.90;;;;;;4962254;28;20035;-88
2023/08/28 10:24:14;;;;;;;1.13;0.40;;;19.90;99.90;;;;;;4960263;28;20086;-86
2023/08/28 10:26:42;;;;;;;1.10;0.40;;;19.60;99.90;;;;;;4962837;28;20039;-86
2023/08/28 10:29:09;;;;;;;0.63;0.30;;;19.40;99.90;;;;;;4958573;28;20502;-89
2023/08/28 10:31:37;;;;;;;0.80;0.30;;;19.50;99.90;;;;;;4964062;28;20054;-86
2023/08/28 10:34:04;;;;;;;0.63;0.20;;;19.50;99.90;;;;;;4956844;28;20042;-89
2023/08/28 10:36:31;;;;;;;0.60;0.20;;;19.40;99.90;;;;;;4962374;28;20775;-86
2023/08/28 10:39:00;;;;;;;0.77;0.20;;;19.50;99.90;;;;;;4961374;28;20027;-85
2023/08/28 10:41:28;;;;;;;2.00;0.20;;;19.50;99.90;;;;;;4947691;28;20125;-88
2023/08/28 10:43:54;;;;;;;0.60;0.20;;;19.40;99.90;;;;;;4961448;28;20027;-90
2023/08/28 10:46:22;;;;;;;1.55;0.40;;;19.40;99.90;;;;;;4955306;28;20034;-90
2023/08/28 10:48:55;;;;;;;1.58;0.50;;;19.30;99.90;;;;;;4954545;28;20141;-89
2023/08/28 10:51:28;;;;;;;2.05;0.50;;;19.80;99.90;;;;;;4949190;28;20485;-91
2023/08/28 10:53:54;;;;;;;1.05;0.40;;;19.60;99.90;;;;;;4959389;28;20043;-87
2023/08/28 10:56:20;;;;;;;1.38;0.50;;;19.30;99.90;;;;;;4954350;28;20082;-91
2023/08/28 10:58:45;;;;;;;1.90;0.50;;;19.10;99.90;;;;;;4946376;28;20122;-88
2023/08/28 11:01:16;;;;;;;1.17;0.45;;;18.90;99.90;;;;;;4957451;28;20126;-86
2023/08/28 11:03:51;;;;;;;1.10;0.40;;;18.90;99.90;;;;;;4948190;28;20053;-85
2023/08/28 11:06:36;;;;;;;3.38;0.50;;;19.00;99.90;;;;;;4956408;28;20071;-91
2023/08/28 11:09:29;;;;;;;2.10;0.40;;;19.30;99.90;;;;;;4956654;28;20049;-84
2023/08/28 11:12:01;;;;;;;0.70;0.30;;;19.50;99.90;;;;;;4942187;28;20404;-89
2023/08/28 11:14:41;;;;;;;0.90;0.40;;;19.70;99.90;;;;;;4956299;28;20093;-87
2023/08/28 11:17:11;;;;;;;1.67;0.40;;;20.10;99.90;;;;;;4953239;28;20058;-91
2023/08/28 11:19:55;;;;;;;;;;;20.10;99.90;;;;;;4945906;28;20027;-86
2023/08/28 11:22:42;;;;;;;1.25;0.30;;;19.90;99.90;;;;;;4943338;28;20319;-90
2023/08/28 11:25:12;;;;;;;1.08;0.30;;;20.00;99.90;;;;;;4961928;28;20301;-89
2023/08/28 11:27:50;;;;;;;1.13;0.40;;;19.90;99.90;;;;;;4957843;28;20110;-87
2023/08/28 11:30:21;;;;;;;1.27;0.35;;;20.00;99.90;;;;;;4941902;28;20109;-88
2023/08/28 11:32:55;;;;;;;0.65;0.22;;;20.00;99.90;;;;;;4946089;28;20027;-87
2023/08/28 11:35:22;;;;;;;1.02;0.30;;;20.10;99.90;;;;;;4962564;28;20030;-91
2023/08/28 11:37:53;;;;;;;1.65;0.30;;;20.50;99.90;;;;;;4948011;28;20035;-84
2023/08/28 11:40:24;;;;;;;1.35;0.25;;;20.60;99.90;;;;;;4960090;28;20042;-88
2023/08/28 11:43:03;;;;;;;0.75;0.30;;;20.50;99.90;;;;;;4957940;28;20446;-89
2023/08/28 11:45:29;;;;;;;1.03;0.30;;;20.40;99.90;;;;;;4947476;28;20111;-85
2023/08/28 11:47:59;;;;;;;0.88;0.20;;;20.20;99.90;;;;;;4962952;28;20054;-84
2023/08/28 11:50:32;;;;;;;2.70;0.20;;;20.40;99.90;;;;;;4945120;28;20090;-90
2023/08/28 11:52:58;;;;;;;1.52;0.20;;;20.60;99.90;;;;;;4945042;28;20034;-89
2023/08/28 11:55:23;;;;;;;0.38;0.10;;;20.70;99.90;;;;;;4957645;28;20082;-87
2023/08/28 11:57:50;;;;;;;2.35;0.20;;;21.20;99.90;;;;;;4963204;28;20035;-89
2023/08/28 12:00:16;;;;;;;1.10;0.20;;;21.00;99.90;;;;;;4946108;28;20035;-86
2023/08/28 12:02:44;;;;;;;0.60;0.15;;;21.10;99.90;;;;;;4959130;28;20118;-84
2023/08/28 12:05:10;;;;;;;0.65;0.20;;;21.20;99.90;;;;;;4963527;28;20039;-89
2023/08/28 12:07:36;;;;;;;0.40;0.10;;;20.60;99.90;;;;;;4958889;28;20090;-90
2023/08/28 12:10:03;;;;;;;0.55;0.10;;;20.40;99.90;;;;;;4943255;28;20053;-86
2023/08/28 12:12:29;;;;;;;0.63;0.20;;;20.30;99.90;;;;;;4957081;28;20124;-85
2023/08/28 12:14:55;;;;;;;0.88;0.20;;;20.20;99.90;;;;;;4962253;28;20381;-89
2023/08/28 12:17:26;;;;;;;0.70;0.10;;;20.10;99.90;;;;;;4943023;28;20027;-90
2023/08/28 12:19:52;;;;;;;0.80;0.03;;;20.10;99.90;;;;;;4963617;28;20773;-87
2023/08/28 12:22:22;;;;;;;0.63;0.10;;;20.20;99.90;;;;;;4962211;28;20023;-90
2023/08/28 12:24:50;;;;;;;0.40;0.00;;;20.20;99.90;;;;;;4946283;28;20039;-92
2023/08/28 12:27:23;;;;;;;0.82;0.10;;;20.10;99.90;;;;;;4960168;28;20097;-89
2023/08/28 12:29:49;;;;;;;0.20;0.05;;;20.20;99.90;;;;;;4952692;28;20034;-92
2023/08/28 12:32:16;;;;;;;0.70;0.15;;;20.10;99.90;;;;;;4958448;28;20039;-92
2023/08/28 12:34:43;;;;;;;1.05;0.10;;;19.90;99.90;;;;;;4963812;28;20035;-84
2023/08/28 12:37:11;;;;;;;0.57;0.13;;;19.70;99.90;;;;;;4960024;28;20026;-94
2023/08/28 12:39:48;;;;;;;0.38;0.10;;;19.60;99.90;;;;;;4947840;28;20034;-91
2023/08/28 12:42:14;;;;;;;0.20;0.10;;;19.60;99.90;;;;;;4944209;28;20166;-87
2023/08/28 12:44:43;;;;;;;0.30;0.10;;;19.50;99.90;;;;;;4956240;28;20395;-88
2023/08/28 12:47:14;;;;;;;0.70;0.10;;;19.60;99.90;;;;;;4960258;28;20511;-89
2023/08/28 12:49:40;;;;;;;0.60;0.10;;;19.60;99.90;;;;;;4961953;28;20286;-89